Etusivu
METAR-TAF:

METAR-TAF

Lentoasemat :

Öljynporauslautta

P11-b, Alankomaat

Leveyspiiri: 52-21-36N, Pituuspiiri: 3-20-30E, korkeus merenpinnasta: 24 m

Tämänhetkinen sää

Tämä raportti tehtiin 15 minuuttia sitten, kello 07.25 UTC
Tuuli 24 kn lännestä/lounaasta, vaihdellen lounaan ja lännen/luoteen välillä
Lämpötila 7°C
Kosteus 87%
Ilmanpaine 1015 hPa
Näkyvyys 10 km tai enemmän
Muutamia pilviä 4300 ft:n korkeudessa

METAR: EHPG 190725Z AUTO 25024KT 230V290 9999 FEW043 07/05 Q1015 W///H///

Aika: 08:40 (07:40 UTC)


TAF: puuttuu

Säähavainnot ja -ennusteet yli 4000 lentoasemalta (METAR- ja TAF-raportit).

Käytössä olevat sääasemat on merkitty karttaan keltaisilla ja punaisilla pisteillä.

Aseta hiiri pisteen päälle nähdäksesi sääaseman nimen.

Klikkaa sitten nähdäksesi säähavainnot ja -ennusteet.

Kartan vaihtaminen: klikkaa mustalla rastilla varustettuja vihreitä pisteitä, niin voit zoomata sisään; viivalla varustettua vihreää pistettä, niin voit zoomata ulos tai vihreitä nuolia, niin pääset viereisille kartoille.


METAR-TAF: